Time;durP1;ratioP1;P1;durP2;ratioP2;P2;SDS_P1;SDS_P2;PMS_P1;PMS_P2;Temp;Humidity;BMP_temperature;BMP_pressure;BME280_temperature;BME280_humidity;BME280_pressure;Samples;Min_cycle;Max_cycle;Signal;HPM_P1;HPM_P2
2021/09/19 00:01:27;;;;;;;7.95;3.02;;;;;;;14.43;46.53;100561.86;1796147;79;20234;-65
2021/09/19 00:04:00;;;;;;;6.37;2.72;;;;;;;14.42;46.60;100561.05;1800335;79;21295;-65
2021/09/19 00:06:34;;;;;;;8.00;2.87;;;;;;;14.45;46.60;100555.97;1797138;79;21235;-65
2021/09/19 00:09:08;;;;;;;7.65;3.10;;;;;;;14.44;46.67;100552.98;1797035;79;21180;-67
2021/09/19 00:11:43;;;;;;;7.05;2.62;;;;;;;14.44;46.74;100555.62;1796076;79;21219;-64
2021/09/19 00:14:17;;;;;;;11.73;2.85;;;;;;;14.43;46.75;100555.27;1799500;79;21140;-64
2021/09/19 00:16:50;;;;;;;6.45;2.67;;;;;;;14.42;46.78;100552.31;1799521;79;21244;-66
2021/09/19 00:19:24;;;;;;;8.05;2.65;;;;;;;14.40;46.85;100558.23;1799340;79;21312;-64
2021/09/19 00:21:57;;;;;;;5.63;2.93;;;;;;;14.40;46.92;100549.02;1799105;79;21286;-65
2021/09/19 00:24:30;;;;;;;7.53;3.53;;;;;;;14.39;46.98;100553.93;1807746;79;21553;-64
2021/09/19 00:27:04;;;;;;;;;;;;;;;14.39;47.04;100553.93;1815432;78;21175;-65
2021/09/19 00:29:37;;;;;;;6.97;2.60;;;;;;;14.39;47.10;100553.93;1812765;78;20163;-65
2021/09/19 00:32:10;;;;;;;12.53;3.10;;;;;;;14.37;47.15;100562.48;1801682;78;21261;-66
2021/09/19 00:34:47;;;;;;;8.75;3.27;;;;;;;14.38;47.13;100556.22;1801128;78;21223;-65
2021/09/19 00:37:20;;;;;;;5.27;2.70;;;;;;;14.39;47.16;100562.66;1799928;78;21343;-65
2021/09/19 00:39:53;;;;;;;9.10;2.90;;;;;;;14.40;47.21;100559.55;1818520;78;21264;-66
2021/09/19 00:42:27;;;;;;;13.13;2.77;;;;;;;14.39;47.28;100549.50;1813566;78;21334;-66
2021/09/19 00:45:03;;;;;;;6.67;2.35;;;;;;;14.38;47.28;100554.41;1817944;78;21250;-64
2021/09/19 00:47:37;;;;;;;6.08;2.55;;;;;;;14.38;47.30;100541.73;1744322;81;21817;-65
2021/09/19 00:50:13;;;;;;;6.60;2.83;;;;;;;14.36;47.35;100543.21;1751483;81;21276;-64
2021/09/19 00:52:47;;;;;;;11.20;2.47;;;;;;;14.35;47.41;100542.05;1748289;81;21271;-66
2021/09/19 00:55:20;;;;;;;6.80;2.75;;;;;;;14.32;47.48;100546.30;1817619;78;21283;-66
2021/09/19 00:57:55;;;;;;;13.35;2.92;;;;;;;14.29;47.59;100547.41;1815453;78;21266;-65
2021/09/19 01:00:30;;;;;;;9.73;2.95;;;;;;;14.28;47.66;100552.32;1815822;78;21296;-64
2021/09/19 01:03:04;;;;;;;10.53;2.40;;;;;;;14.25;47.74;100550.50;1746705;82;21787;-65
2021/09/19 01:05:40;;;;;;;10.65;2.80;;;;;;;14.23;47.80;100534.86;1752603;80;21149;-66
2021/09/19 01:08:14;;;;;;;6.05;2.40;;;;;;;14.22;47.80;100537.14;1744600;81;21287;-64
2021/09/19 01:10:47;;;;;;;4.42;2.25;;;;;;;14.23;47.84;100536.66;1815329;78;21145;-66
2021/09/19 01:13:21;;;;;;;11.12;2.52;;;;;;;14.23;47.91;100530.08;1820295;78;21184;-64
2021/09/19 01:15:54;;;;;;;6.20;2.20;;;;;;;14.22;47.96;100533.20;1823136;78;21273;-65
2021/09/19 01:18:28;;;;;;;13.58;2.77;;;;;;;14.21;48.00;100533.36;1815430;78;21337;-64
2021/09/19 01:21:01;;;;;;;8.87;2.33;;;;;;;14.20;48.00;100527.26;1815668;78;21144;-64
2021/09/19 01:23:37;;;;;;;5.42;2.22;;;;;;;14.21;48.11;100530.72;1814556;78;21657;-64
2021/09/19 01:26:10;;;;;;;9.35;2.40;;;;;;;14.19;48.10;100546.66;1827330;78;21203;-65
2021/09/19 01:28:43;;;;;;;;;;;;;;;14.17;48.13;100537.61;1819747;78;21164;-65
2021/09/19 01:31:17;;;;;;;4.80;2.35;;;;;;;14.15;48.17;100526.89;1812188;78;20672;-65
2021/09/19 01:33:50;;;;;;;;;;;;;;;14.11;48.34;100532.93;1820785;78;21137;-67
2021/09/19 01:36:23;;;;;;;5.25;2.27;;;;;;;14.10;48.38;100533.09;1814382;78;20274;-65
2021/09/19 01:38:56;;;;;;;6.75;2.27;;;;;;;14.07;48.42;100523.69;1821862;78;21165;-65
2021/09/19 01:41:29;;;;;;;4.93;1.90;;;;;;;14.07;48.52;100542.60;1816587;78;21315;-66
2021/09/19 01:44:03;;;;;;;;;;;;;;;14.06;48.53;100528.64;1824197;78;21147;-65
2021/09/19 01:46:36;;;;;;;5.22;2.08;;;;;;;14.06;48.55;100530.44;1814334;78;20560;-65
2021/09/19 01:49:09;;;;;;;9.38;2.35;;;;;;;14.03;48.61;100526.78;1813954;78;21290;-66
2021/09/19 01:51:42;;;;;;;;;;;;;;;14.04;48.65;100517.41;1818225;78;21130;-65
2021/09/19 01:54:16;;;;;;;4.90;2.20;;;;;;;14.07;48.67;100517.59;1790670;78;20223;-64
2021/09/19 01:56:50;;;;;;;8.20;2.58;;;;;;;14.08;48.69;100523.20;1820337;78;21690;-67
2021/09/19 01:59:23;;;;;;;14.83;3.00;;;;;;;14.09;48.70;100520.41;1821768;78;21304;-62
2021/09/19 02:01:57;;;;;;;8.60;2.10;;;;;;;14.12;48.69;100534.59;1821913;78;21264;-66
2021/09/19 02:04:31;;;;;;;9.80;2.00;;;;;;;14.15;48.62;100516.35;1821355;78;21187;-65
2021/09/19 02:07:05;;;;;;;9.30;2.30;;;;;;;14.16;48.59;100525.92;1810066;78;21281;-65
2021/09/19 02:09:38;;;;;;;7.85;2.02;;;;;;;14.19;48.53;100530.86;1818652;78;21299;-66
2021/09/19 02:12:14;;;;;;;9.37;2.07;;;;;;;14.19;48.48;100520.33;1820240;78;21198;-63
2021/09/19 02:14:46;;;;;;;5.12;1.82;;;;;;;14.21;48.51;100529.41;1817727;78;21130;-63
2021/09/19 02:17:21;;;;;;;3.22;1.87;;;;;;;14.19;48.49;100525.11;1822810;78;21272;-66
2021/09/19 02:19:55;;;;;;;9.08;2.10;;;;;;;14.19;48.50;100522.48;1823129;78;21307;-67
2021/09/19 02:22:28;;;;;;;6.03;1.87;;;;;;;14.19;48.52;100519.84;1816164;78;21284;-66
2021/09/19 02:25:03;;;;;;;3.83;1.75;;;;;;;14.17;48.58;100524.44;1743118;82;21568;-65
2021/09/19 02:27:36;;;;;;;3.75;1.98;;;;;;;14.16;48.65;100523.28;1756729;80;21272;-64
2021/09/19 02:30:14;;;;;;;10.10;1.85;;;;;;;14.15;48.63;100519.82;1740957;81;21192;-64
2021/09/19 02:32:47;;;;;;;8.55;2.12;;;;;;;14.16;48.66;100516.19;1772195;80;21286;-64
2021/09/19 02:35:20;;;;;;;8.97;1.90;;;;;;;14.13;48.67;100515.20;1757073;81;21330;-64
2021/09/19 02:37:54;;;;;;;7.47;2.20;;;;;;;14.13;48.67;100515.20;1749763;80;21963;-65
2021/09/19 02:40:28;;;;;;;5.33;2.20;;;;;;;14.14;48.74;100528.69;1816659;78;21116;-65
2021/09/19 02:43:01;;;;;;;6.97;2.08;;;;;;;14.12;48.76;100528.02;1818823;78;21287;-65
2021/09/19 02:45:35;;;;;;;5.92;2.08;;;;;;;14.10;48.84;100527.34;1816817;78;21195;-65
2021/09/19 02:48:08;;;;;;;8.30;2.10;;;;;;;14.07;48.96;100517.59;1821561;78;21209;-64
2021/09/19 02:50:41;;;;;;;7.87;1.95;;;;;;;14.07;48.91;100525.48;1815569;78;21298;-65
2021/09/19 02:53:14;;;;;;;3.20;1.90;;;;;;;14.07;48.99;100530.75;1831560;78;21268;-64
2021/09/19 02:55:47;;;;;;;4.10;2.13;;;;;;;14.04;49.08;100521.35;1747248;81;21283;-64
2021/09/19 02:58:20;;;;;;;7.42;2.62;;;;;;;14.03;49.17;100511.82;1749711;82;21311;-64
2021/09/19 03:00:54;;;;;;;4.03;2.22;;;;;;;14.01;49.20;100513.78;1745267;81;21703;-63
2021/09/19 03:03:28;;;;;;;6.50;2.10;;;;;;;14.01;49.23;100505.89;1746986;81;21185;-65
2021/09/19 03:06:02;;;;;;;8.85;2.47;;;;;;;13.99;49.24;100509.16;1817932;78;21250;-63
2021/09/19 03:08:35;;;;;;;7.83;2.00;;;;;;;13.99;49.35;100505.22;1816779;78;21275;-63
2021/09/19 03:11:08;;;;;;;11.97;2.10;;;;;;;13.97;49.71;100505.83;1744224;81;21331;-65
2021/09/19 03:13:41;;;;;;;;;;;;;;;13.97;49.71;100505.83;1756295;81;21659;-65
2021/09/19 03:16:14;;;;;;;6.62;2.17;;;;;;;13.97;49.55;100509.78;1826795;78;20231;-65
2021/09/19 03:18:48;;;;;;;6.80;2.17;;;;;;;13.95;49.60;100509.59;1823763;78;21141;-63
2021/09/19 03:21:22;;;;;;;4.12;1.72;;;;;;;13.94;49.61;100507.47;1820499;78;21798;-66
2021/09/19 03:23:55;;;;;;;5.70;2.30;;;;;;;13.94;49.71;100511.91;1826201;78;21192;-63
2021/09/19 03:26:28;;;;;;;5.27;1.97;;;;;;;13.92;50.03;100524.39;1826706;78;21129;-64
2021/09/19 03:29:02;;;;;;;;;;;;;;;13.92;50.03;100524.39;1813575;78;21878;-63
2021/09/19 03:31:35;;;;;;;7.58;1.80;;;;;;;13.92;49.74;100517.81;1817169;78;20167;-65
2021/09/19 03:34:08;;;;;;;7.30;2.12;;;;;;;13.90;49.79;100508.73;1820685;78;21316;-63
2021/09/19 03:36:41;;;;;;;11.73;2.47;;;;;;;13.91;49.80;100516.98;1823862;78;21291;-63
2021/09/19 03:39:15;;;;;;;8.15;2.40;;;;;;;13.92;49.85;100531.77;1813178;78;21141;-65
2021/09/19 03:41:48;;;;;;;11.93;2.35;;;;;;;13.93;49.81;100533.44;1792731;79;21258;-65
2021/09/19 03:44:21;;;;;;;5.95;2.05;;;;;;;13.93;49.77;100534.75;1787445;79;21245;-65
2021/09/19 03:46:55;;;;;;;;;;;;;;;13.94;49.68;100528.53;1785794;79;21193;-65
2021/09/19 03:49:28;;;;;;;5.25;1.72;;;;;;;13.97;49.67;100539.25;1781463;79;20173;-66
2021/09/19 03:52:01;;;;;;;5.50;2.00;;;;;;;13.97;49.64;100536.09;1773021;79;21321;-66
2021/09/19 03:54:35;;;;;;;7.80;2.30;;;;;;;14.00;49.63;100534.48;1788587;78;21204;-65
2021/09/19 03:57:09;;;;;;;7.10;2.15;;;;;;;14.05;49.56;100537.50;1815536;78;21293;-65
2021/09/19 03:59:42;;;;;;;;;;;;;;;14.08;49.46;100529.79;1813890;77;21179;-65
2021/09/19 04:02:15;;;;;;;3.95;1.90;;;;;;;14.10;49.39;100531.78;1808388;78;20258;-66
2021/09/19 04:04:49;;;;;;;4.30;1.98;;;;;;;14.10;49.39;100529.14;1806402;78;21286;-65
2021/09/19 04:07:22;;;;;;;4.05;1.75;;;;;;;14.13;49.33;100531.48;1810786;77;21294;-64
2021/09/19 04:09:55;;;;;;;;;;;;;;;14.16;49.29;100537.77;1816378;78;21124;-67
2021/09/19 04:12:28;;;;;;;6.08;2.37;;;;;;;14.19;49.23;100550.13;1820565;77;20147;-66
2021/09/19 04:15:02;;;;;;;8.30;1.92;;;;;;;14.20;49.20;100550.95;1809500;77;21685;-67
2021/09/19 04:17:35;;;;;;;;;;;;;;;14.26;49.12;100558.23;1812611;78;21124;-67
2021/09/19 04:20:12;;;;;;;6.22;2.55;;;;;;;14.31;49.07;100550.73;1810411;77;20231;-66
2021/09/19 04:22:45;;;;;;;4.97;2.10;;;;;;;14.35;49.05;100549.47;1821160;77;21199;-65
2021/09/19 04:25:19;;;;;;;;;;;;;;;14.40;49.05;100542.42;1819598;78;21108;-66
2021/09/19 04:27:52;;;;;;;9.95;1.90;;;;;;;14.41;49.13;100545.37;1809461;77;20230;-65
2021/09/19 04:30:26;;;;;;;4.95;1.80;;;;;;;14.38;49.12;100536.46;1809091;78;21331;-65
2021/09/19 04:32:59;;;;;;;8.28;1.62;;;;;;;14.38;49.14;100536.46;1816860;77;21113;-64
2021/09/19 04:35:33;;;;;;;3.55;1.55;;;;;;;14.38;49.28;100541.25;1812976;77;21802;-64
2021/09/19 04:38:06;;;;;;;5.83;1.62;;;;;;;14.37;49.39;100534.83;1815644;77;21184;-65
2021/09/19 04:40:39;;;;;;;9.40;2.37;;;;;;;14.36;49.42;100529.20;1814212;77;21215;-65
2021/09/19 04:43:13;;;;;;;8.10;1.70;;;;;;;14.38;49.52;100537.30;1806283;78;21282;-64
2021/09/19 04:45:46;;;;;;;12.90;2.67;;;;;;;14.40;49.45;100534.01;1816394;77;21136;-62
2021/09/19 04:48:19;;;;;;;8.50;1.90;;;;;;;14.43;49.52;100556.10;1811969;78;21238;-65
2021/09/19 04:50:52;;;;;;;7.12;2.42;;;;;;;14.46;49.59;100537.84;1811438;78;21300;-65
2021/09/19 04:53:26;;;;;;;9.45;2.72;;;;;;;14.50;49.58;100534.75;1805148;78;21250;-65
2021/09/19 04:55:59;;;;;;;14.58;6.80;;;;;;;14.54;49.57;100540.06;1808470;78;21133;-69
2021/09/19 04:58:32;;;;;;;7.63;3.70;;;;;;;14.60;49.61;100529.38;1820659;78;21256;-64
2021/09/19 05:01:06;;;;;;;4.72;2.37;;;;;;;14.66;49.68;100531.41;1813726;78;21160;-65
2021/09/19 05:03:40;;;;;;;5.50;2.30;;;;;;;14.70;49.69;100518.25;1808996;78;21113;-67
2021/09/19 05:06:14;;;;;;;7.50;2.07;;;;;;;14.75;49.67;100521.25;1808193;78;21188;-64
2021/09/19 05:08:47;;;;;;;6.62;2.12;;;;;;;14.77;49.72;100525.37;1752706;80;21806;-66
2021/09/19 05:11:20;;;;;;;9.93;2.20;;;;;;;14.82;49.76;100519.15;1805784;77;22340;-65
2021/09/19 05:13:54;;;;;;;7.00;2.10;;;;;;;14.87;49.79;100513.41;1821804;78;21366;-66
2021/09/19 05:16:27;;;;;;;7.42;2.10;;;;;;;14.93;49.81;100517.20;1818666;78;21254;-64
2021/09/19 05:19:00;;;;;;;;;;;;;;;14.98;49.76;100510.97;1750321;80;21150;-65
2021/09/19 05:21:34;;;;;;;5.72;1.82;;;;;;;15.03;49.75;100510.00;1742404;80;20394;-63
2021/09/19 05:24:07;;;;;;;9.68;2.27;;;;;;;15.07;49.80;100510.84;1778977;79;21684;-66
2021/09/19 05:26:41;;;;;;;;;;;;;;;15.13;49.71;100504.13;1816285;78;21125;-63
2021/09/19 05:29:13;;;;;;;8.05;1.90;;;;;;;15.17;49.67;100510.72;1814480;78;20290;-63
2021/09/19 05:31:48;;;;;;;7.37;2.20;;;;;;;15.18;49.56;100502.67;1810180;78;21306;-62
2021/09/19 05:34:20;;;;;;;3.67;1.70;;;;;;;15.24;49.57;100507.29;1814731;77;21769;-63
2021/09/19 05:36:53;;;;;;;4.22;1.80;;;;;;;15.32;49.45;100495.95;1818806;77;21303;-64
2021/09/19 05:39:27;;;;;;;5.03;1.70;;;;;;;15.39;49.38;100507.50;1813870;77;21295;-64
2021/09/19 05:42:00;;;;;;;5.05;2.20;;;;;;;15.49;49.34;100495.03;1810433;78;21382;-64
2021/09/19 05:44:34;;;;;;;11.05;2.00;;;;;;;15.63;49.28;100501.00;1819845;77;21180;-67
2021/09/19 05:47:07;;;;;;;14.03;1.90;;;;;;;15.87;48.83;100509.44;1815188;78;21207;-65
2021/09/19 05:49:41;;;;;;;8.40;1.90;;;;;;;16.07;48.52;100505.50;1813006;78;21317;-65
2021/09/19 05:52:14;;;;;;;;;;;;;;;16.25;48.07;100520.67;1788787;79;21198;-66
2021/09/19 05:54:47;;;;;;;6.60;2.17;;;;;;;16.38;48.08;100504.33;1780241;80;20260;-66
2021/09/19 05:57:21;;;;;;;8.73;2.05;;;;;;;16.52;47.83;100499.70;1782008;79;21286;-64
2021/09/19 05:59:54;;;;;;;7.25;2.17;;;;;;;16.68;47.70;100492.56;1766428;80;21349;-67
2021/09/19 06:02:27;;;;;;;10.73;1.90;;;;;;;16.87;47.50;100491.83;1780842;79;21278;-64
2021/09/19 06:05:00;;;;;;;10.85;1.98;;;;;;;17.06;47.19;100480.84;1773642;79;21709;-68
2021/09/19 06:07:34;;;;;;;10.75;2.35;;;;;;;17.19;47.04;100487.25;1785719;79;21254;-66
2021/09/19 06:10:07;;;;;;;8.73;2.27;;;;;;;17.25;46.98;100479.94;1766571;79;21321;-63
2021/09/19 06:12:41;;;;;;;16.15;4.20;;;;;;;17.71;46.60;100482.66;1777886;80;21163;-65
2021/09/19 06:15:14;;;;;;;;;;;;;;;18.46;45.35;100471.63;1803431;79;21163;-65
2021/09/19 06:17:48;;;;;;;7.55;3.27;;;;;;;19.36;43.18;100473.03;1784125;79;20594;-63
2021/09/19 06:20:21;;;;;;;13.20;3.17;;;;;;;20.59;41.17;100451.22;1767261;80;21349;-63
2021/09/19 06:22:54;;;;;;;;;;;;;;;21.47;39.22;100460.52;1792161;80;21808;-60
2021/09/19 06:25:27;;;;;;;13.62;2.45;;;;;;;21.64;38.33;100474.81;1786359;79;20200;-63
2021/09/19 06:28:00;;;;;;;9.48;2.80;;;;;;;21.43;38.69;100447.30;1780262;80;21273;-60
2021/09/19 06:30:34;;;;;;;6.70;2.10;;;;;;;21.87;38.47;100431.30;1766513;80;21170;-62
2021/09/19 06:33:07;;;;;;;12.35;2.35;;;;;;;22.62;37.14;100432.97;1765393;79;21262;-63
2021/09/19 06:35:41;;;;;;;9.93;2.30;;;;;;;23.53;36.00;100440.28;1781685;79;21178;-64
2021/09/19 06:38:14;;;;;;;4.97;2.02;;;;;;;24.48;34.35;100432.42;1786691;80;21809;-63
2021/09/19 06:40:48;;;;;;;22.20;2.85;;;;;;;25.16;33.04;100415.66;1793626;80;21171;-66
2021/09/19 06:43:21;;;;;;;13.08;1.95;;;;;;;25.87;31.94;100434.41;1790308;80;21266;-63
2021/09/19 06:45:55;;;;;;;20.35;2.47;;;;;;;26.48;30.80;100438.84;1773883;80;21199;-62
2021/09/19 06:48:29;;;;;;;10.45;1.82;;;;;;;26.93;29.96;100414.84;1773161;80;21307;-62
2021/09/19 06:51:02;;;;;;;20.40;2.83;;;;;;;27.29;29.26;100415.80;1774945;79;21278;-61
2021/09/19 06:53:37;;;;;;;;;;;;;;;27.12;29.19;100410.91;1784004;79;21277;-63
2021/09/19 06:56:08;;;;;;;7.90;1.80;;;;;;;26.27;30.11;100415.27;1776334;80;20260;-64
2021/09/19 06:58:42;;;;;;;6.55;2.00;;;;;;;25.10;31.97;100420.59;1775569;79;21135;-64
2021/09/19 07:01:16;;;;;;;12.60;2.45;;;;;;;24.33;33.44;100426.09;1785989;80;21179;-64
2021/09/19 07:03:51;;;;;;;6.65;1.80;;;;;;;23.63;34.68;100409.89;1794268;80;21147;-62
2021/09/19 07:06:25;;;;;;;13.15;2.83;;;;;;;23.53;35.06;100417.56;1794233;79;21199;-64
2021/09/19 07:08:59;;;;;;;5.62;1.98;;;;;;;23.94;34.83;100403.16;1772720;80;21132;-62
2021/09/19 07:11:33;;;;;;;8.43;2.15;;;;;;;24.15;34.44;100405.15;1768861;79;21171;-64
2021/09/19 07:14:07;;;;;;;12.23;2.20;;;;;;;23.81;34.81;100412.62;1758955;80;21345;-64
2021/09/19 07:16:41;;;;;;;8.33;2.10;;;;;;;23.24;35.99;100406.92;1772659;79;21123;-65
2021/09/19 07:19:14;;;;;;;13.58;1.92;;;;;;;22.68;36.99;100411.30;1771575;79;21278;-66
2021/09/19 07:21:48;;;;;;;16.82;2.67;;;;;;;21.08;43.85;100392.52;1788466;80;21153;-63
2021/09/19 07:24:21;;;;;;;11.57;4.08;;;;;;;21.08;43.85;100392.52;1778955;80;21278;-64
2021/09/19 07:26:54;;;;;;;14.83;7.47;;;;;;;20.35;44.13;100398.49;1774921;79;21263;-65
2021/09/19 07:29:27;;;;;;;24.02;5.03;;;;;;;19.82;45.02;100406.56;1776206;79;21275;-67
2021/09/19 07:32:06;;;;;;;21.42;8.50;;;;;;;19.44;47.91;100411.33;1779784;79;21270;-63
2021/09/19 07:34:38;;;;;;;16.60;4.50;;;;;;;19.04;49.31;100407.91;1780437;79;21175;-62
2021/09/19 07:37:11;;;;;;;;;;;;;;;18.63;50.20;100410.75;1788718;79;21798;-64
2021/09/19 07:39:45;;;;;;;15.53;5.45;;;;;;;18.32;50.44;100410.91;1776274;80;20222;-64
2021/09/19 07:42:19;;;;;;;16.07;4.70;;;;;;;18.10;51.09;100406.00;1789579;79;21151;-62
2021/09/19 07:44:52;;;;;;;17.85;8.88;;;;;;;18.01;51.37;100415.53;1764873;80;21278;-65
2021/09/19 07:47:27;;;;;;;29.25;8.13;;;;;;;17.95;52.16;100409.14;1780844;79;21276;-63
2021/09/19 07:50:01;;;;;;;10.43;5.75;;;;;;;17.86;52.05;100402.28;1788771;79;21186;-66
2021/09/19 07:52:35;;;;;;;41.20;17.23;;;;;;;17.83;51.74;100403.95;1775658;79;21329;-65
2021/09/19 07:55:14;;;;;;;35.92;16.15;;;;;;;17.87;52.03;100397.78;1779932;79;21310;-68
2021/09/19 07:57:45;;;;;;;17.87;7.97;;;;;;;17.93;52.01;100411.16;1762419;79;21688;-68
2021/09/19 08:00:19;;;;;;;12.73;5.28;;;;;;;18.02;51.49;100384.91;1778512;79;21215;-67
2021/09/19 08:02:51;;;;;;;;;;;;;;;18.15;51.74;100386.41;1776859;79;21802;-64
2021/09/19 08:05:24;;;;;;;7.62;3.22;;;;;;;18.28;51.54;100396.39;1783562;79;20256;-63
2021/09/19 08:07:58;;;;;;;8.60;2.67;;;;;;;18.46;51.43;100385.47;1770267;79;21256;-65
2021/09/19 08:10:31;;;;;;;13.00;4.17;;;;;;;18.69;50.81;100367.61;1772172;79;21168;-65
2021/09/19 08:13:04;;;;;;;7.95;3.15;;;;;;;18.93;50.49;100383.20;1777166;79;21267;-66
2021/09/19 08:15:38;;;;;;;10.03;2.40;;;;;;;19.16;49.95;100361.80;1767844;79;21266;-64
2021/09/19 08:18:12;;;;;;;12.65;2.60;;;;;;;19.38;49.76;100360.33;1772738;79;21275;-64
2021/09/19 08:20:44;;;;;;;;;;;;;;;19.51;49.18;100363.63;1773446;79;21270;-65
2021/09/19 08:23:17;;;;;;;8.65;2.67;;;;;;;19.57;49.14;100397.86;1780827;79;20256;-65
2021/09/19 08:25:50;;;;;;;7.45;2.17;;;;;;;19.53;49.26;100376.20;1782994;79;21845;-65
2021/09/19 08:28:24;;;;;;;9.78;2.90;;;;;;;19.50;49.39;100357.98;1775790;79;21179;-63
2021/09/19 08:30:59;;;;;;;11.73;3.47;;;;;;;19.46;49.68;100346.11;1813624;77;21175;-66
2021/09/19 08:33:32;;;;;;;19.25;4.22;;;;;;;19.47;49.93;100357.03;1718908;80;21257;-65
2021/09/19 08:36:06;;;;;;;10.63;3.75;;;;;;;19.48;50.12;100350.22;1778276;79;21132;-65
2021/09/19 08:38:39;;;;;;;13.80;3.33;;;;;;;19.52;50.11;100351.97;1778840;79;21272;-65
2021/09/19 08:41:18;;;;;;;8.50;2.55;;;;;;;19.57;50.27;100344.25;1771393;78;21129;-63
2021/09/19 08:43:52;;;;;;;8.80;3.33;;;;;;;19.64;50.48;100349.11;1784563;78;21227;-65
2021/09/19 08:46:26;;;;;;;9.48;3.45;;;;;;;19.73;50.52;100343.97;1712041;81;21173;-65
2021/09/19 08:49:00;;;;;;;17.15;8.53;;;;;;;19.82;50.38;100344.66;1730045;81;21209;-65
2021/09/19 08:51:34;;;;;;;22.20;11.25;;;;;;;19.92;50.40;100333.98;1708376;81;21240;-65
2021/09/19 08:54:11;;;;;;;20.62;5.70;;;;;;;20.05;50.20;100330.10;1708754;82;21249;-64
2021/09/19 08:56:47;;;;;;;20.35;8.73;;;;;;;20.19;50.11;100332.32;1718889;82;21176;-66
2021/09/19 08:59:20;;;;;;;14.93;5.62;;;;;;;20.30;49.87;100325.67;1767032;81;21276;-64
2021/09/19 09:02:01;;;;;;;12.30;4.85;;;;;;;20.41;49.63;100313.14;1756317;81;21316;-63
2021/09/19 09:04:39;;;;;;;6.83;2.92;;;;;;;20.56;49.37;100313.83;1766281;81;21743;-65
2021/09/19 09:07:14;;;;;;;11.90;5.70;;;;;;;20.73;49.22;100328.39;1721582;81;21196;-64
2021/09/19 09:09:55;;;;;;;8.58;3.90;;;;;;;20.85;48.98;100334.77;1745995;81;21840;-64
2021/09/19 09:12:29;;;;;;;11.85;4.30;;;;;;;20.95;48.81;100313.92;1784396;80;21138;-65
2021/09/19 09:15:04;;;;;;;;;;;;;;;21.08;48.61;100321.16;1752928;81;21316;-65
2021/09/19 09:17:36;;;;;;;11.48;2.22;;;;;;;21.15;48.50;100333.97;1757322;81;20609;-64
2021/09/19 09:20:10;;;;;;;9.08;2.42;;;;;;;21.22;48.57;100326.80;1718571;82;21276;-67
2021/09/19 09:22:43;;;;;;;8.38;2.85;;;;;;;21.28;48.79;100316.16;1786565;79;21307;-64
2021/09/19 09:25:17;;;;;;;13.98;2.60;;;;;;;21.29;49.18;100327.12;1706963;81;21300;-65
2021/09/19 09:27:52;;;;;;;8.65;2.47;;;;;;;21.26;49.25;100318.20;1742610;81;21276;-63
2021/09/19 09:30:26;;;;;;;11.05;3.40;;;;;;;21.22;49.55;100323.64;1738693;81;21203;-67
2021/09/19 09:33:03;;;;;;;;;;;;;;;21.21;49.72;100310.51;1752569;81;21241;-62
2021/09/19 09:35:40;;;;;;;7.28;3.12;;;;;;;21.22;49.89;100317.48;1763302;81;20291;-66
2021/09/19 09:38:20;;;;;;;10.82;3.58;;;;;;;21.19;50.15;100328.53;1748346;81;21786;-66
2021/09/19 09:40:57;;;;;;;15.15;2.87;;;;;;;21.15;50.65;100317.99;1749166;81;21273;-65
2021/09/19 09:43:30;;;;;;;10.18;2.80;;;;;;;21.09;50.78;100310.83;1732319;81;21723;-63
2021/09/19 09:46:13;;;;;;;7.85;2.67;;;;;;;21.00;51.13;100326.12;1726500;81;21296;-64
2021/09/19 09:48:46;;;;;;;9.78;3.00;;;;;;;20.92;51.23;100311.66;1812384;78;21295;-65
2021/09/19 09:51:24;;;;;;;11.35;2.72;;;;;;;20.85;51.55;100309.49;1745355;81;21321;-63
2021/09/19 09:54:00;;;;;;;9.28;2.83;;;;;;;20.78;52.07;100315.30;1803185;78;21169;-63
2021/09/19 09:56:35;;;;;;;7.30;3.25;;;;;;;20.71;52.35;100314.47;1817203;78;21263;-66
2021/09/19 09:59:08;;;;;;;7.92;2.95;;;;;;;20.66;52.85;100316.40;1727047;81;21877;-64
2021/09/19 10:01:43;;;;;;;12.30;3.17;;;;;;;20.67;53.76;100303.42;1748381;81;21161;-64
2021/09/19 10:04:16;;;;;;;5.65;2.60;;;;;;;20.68;54.63;100302.39;1747296;81;21323;-64
2021/09/19 10:06:49;;;;;;;9.28;2.60;;;;;;;20.72;54.00;100302.82;1738878;81;21279;-64
2021/09/19 10:09:23;;;;;;;10.88;3.00;;;;;;;20.74;54.19;100292.80;1761400;81;21284;-64
2021/09/19 10:11:57;;;;;;;15.48;3.20;;;;;;;20.74;53.77;100285.64;1781450;79;21184;-63
2021/09/19 10:14:31;;;;;;;10.48;3.25;;;;;;;20.76;53.78;100302.72;1731515;81;21157;-63
2021/09/19 10:17:05;;;;;;;13.20;3.90;;;;;;;20.77;53.11;100299.05;1710074;82;21211;-63
2021/09/19 10:19:39;;;;;;;12.03;4.25;;;;;;;20.78;53.36;100312.14;1730251;82;21184;-65
2021/09/19 10:22:14;;;;;;;11.53;3.83;;;;;;;20.76;53.29;100304.05;1737486;82;21279;-65
2021/09/19 10:24:48;;;;;;;13.83;4.62;;;;;;;20.68;53.46;100305.05;1764522;80;21189;-64
2021/09/19 10:27:23;;;;;;;11.00;3.52;;;;;;;20.60;53.60;100307.91;1778116;80;21169;-65
2021/09/19 10:30:05;;;;;;;11.08;5.30;;;;;;;20.53;53.92;100311.55;1747264;80;21250;-66
2021/09/19 10:32:46;;;;;;;25.52;12.58;;;;;;;20.49;54.03;100309.78;1768255;80;21776;-64
2021/09/19 10:35:27;;;;;;;18.23;8.60;;;;;;;20.49;54.21;100307.66;1751181;81;21266;-64
2021/09/19 10:38:06;;;;;;;21.60;4.60;;;;;;;20.47;54.36;100315.81;1745368;81;21179;-64
2021/09/19 10:40:42;;;;;;;16.02;4.15;;;;;;;20.47;54.42;100339.75;1751963;81;21187;-64
2021/09/19 10:43:22;;;;;;;14.73;3.42;;;;;;;20.48;54.54;100324.63;1744404;81;21314;-65
2021/09/19 10:45:55;;;;;;;10.43;4.28;;;;;;;20.47;54.56;100325.63;1716867;83;21339;-64
2021/09/19 10:48:32;;;;;;;12.35;5.50;;;;;;;20.45;55.64;100323.17;1717332;82;21177;-63
2021/09/19 10:51:10;;;;;;;11.78;6.58;;;;;;;20.34;56.98;100314.45;1718636;83;21177;-65
2021/09/19 10:53:48;;;;;;;8.83;5.08;;;;;;;20.15;57.62;100309.81;1712668;82;21282;-65
2021/09/19 10:56:22;;;;;;;20.43;8.13;;;;;;;20.00;57.60;100315.75;1747607;81;21723;-66
2021/09/19 10:58:56;;;;;;;16.20;4.42;;;;;;;19.92;57.64;100310.08;1692326;82;21150;-66
2021/09/19 11:01:29;;;;;;;9.25;3.58;;;;;;;19.88;57.49;100310.66;1749226;81;21298;-65
2021/09/19 11:04:16;;;;;;;27.67;10.32;;;;;;;19.86;57.34;100306.88;1724547;81;21268;-65
2021/09/19 11:06:48;;;;;;;12.93;4.28;;;;;;;19.85;57.86;100319.84;1733674;81;21303;-66
2021/09/19 11:09:25;;;;;;;16.55;4.50;;;;;;;19.82;59.45;100334.03;1745482;81;21263;-66
2021/09/19 11:12:18;;;;;;;9.53;3.60;;;;;;;19.70;61.05;100332.92;1768365;79;21139;-65
2021/09/19 11:15:06;;;;;;;12.55;3.58;;;;;;;19.49;63.02;100340.39;1746078;81;21175;-68
2021/09/19 11:17:48;;;;;;;11.10;3.62;;;;;;;19.21;65.09;100369.52;1786390;79;21291;-67
2021/09/19 11:20:23;;;;;;;8.08;3.22;;;;;;;18.90;67.23;100368.97;1777711;80;21138;-70
2021/09/19 11:22:59;;;;;;;18.10;7.50;;;;;;;18.64;69.42;100365.52;1767100;79;21167;-68
2021/09/19 11:25:33;;;;;;;20.55;8.68;;;;;;;18.42;70.87;100364.25;1753635;78;21712;-66
2021/09/19 11:28:07;;;;;;;18.07;7.75;;;;;;;18.25;72.48;100366.27;1752961;79;21167;-68
2021/09/19 11:30:40;;;;;;;;;;;;;;;18.08;73.24;100372.24;1788731;79;21235;-67
2021/09/19 11:33:14;;;;;;;11.28;5.12;;;;;;;17.99;74.21;100368.53;1788449;78;20232;-64
2021/09/19 11:35:47;;;;;;;10.48;4.08;;;;;;;17.90;75.32;100370.45;1797057;78;21291;-67
2021/09/19 11:38:21;;;;;;;10.23;4.55;;;;;;;17.86;76.20;100382.91;1801389;78;21158;-69
2021/09/19 11:40:58;;;;;;;;;;;;;;;17.83;76.98;100376.64;1809758;78;22445;-68
2021/09/19 11:43:34;;;;;;;9.88;3.90;;;;;;;17.80;77.74;100376.99;1802371;78;20187;-66
2021/09/19 11:46:13;;;;;;;13.83;4.30;;;;;;;17.77;78.46;100367.58;1802723;78;21283;-63
2021/09/19 11:48:47;;;;;;;14.18;5.20;;;;;;;17.77;79.10;100361.48;1800432;78;21276;-65
2021/09/19 11:51:20;;;;;;;;;;;;;;;17.76;79.50;100348.74;1805779;78;21298;-66
2021/09/19 11:53:57;;;;;;;7.85;4.60;;;;;;;17.78;79.79;100346.73;1800293;78;20274;-66
2021/09/19 11:56:30;;;;;;;12.82;4.80;;;;;;;17.77;80.16;100352.22;1797988;78;21311;-69
2021/09/19 11:59:04;;;;;;;13.78;5.85;;;;;;;17.77;80.65;100362.81;1801335;78;21315;-66
2021/09/19 12:01:45;;;;;;;14.85;6.75;;;;;;;17.76;81.13;100363.80;1803340;78;21294;-68